Latest Weather Observations for Griffith

IDN60801

Issued at 9:02 pm EDT Sunday 22 January 2017 (issued every 30 minutes, with the page automatically refreshed every 10 minutes)

About weather observations | Map of weather stations | Latest weather observations for NSW | Other Formats
Station Details ID: 075041 Name: GRIFFITH AIRPORT AWS Lat: -34.25 Lon: 146.07 Height: 134.0 m
Data from the previous 72 hours. | See also: Recent months at Griffith
Date/Time
EDT
Temp
°C
App
Temp
°C
Dew
Point
°C
Rel
Hum
%
Delta-T
°C
Wind Press
QNH
hPa
Press
MSL
hPa
Rain since
9am
mm
Dir  Spd
km/h
Gust
km/h
Spd
kts
Gust
kts
22/09:00pm 30.2 28.0 10.7 30 11.2 SSE 13 13 7 7 1009.1 1008.4 0.0
22/08:30pm 31.3 29.8 10.6 28 12.0 SSE 9 11 5 6 1009.0 1008.3 0.0
22/08:00pm 33.5 31.9 10.2 24 13.5 S 9 13 5 7 1009.0 1008.3 0.0
22/07:30pm 34.5 31.8 9.0 21 14.6 SSE 13 17 7 9 1008.8 1008.1 0.0
22/07:00pm 35.4 32.5 8.3 19 15.4 SSW 13 20 7 11 1008.7 1008.0 0.0
22/06:30pm 36.4 34.7 8.3 18 16.0 W 7 13 4 7 1008.7 1008.0 0.0
22/06:00pm 36.5 34.6 7.5 17 16.4 WSW 7 17 4 9 1008.8 1008.1 0.0
22/05:30pm 36.2 33.5 7.3 17 16.2 NW 11 24 6 13 1008.9 1008.2 0.0
22/05:00pm 35.7 33.1 7.7 18 15.8 W 11 19 6 10 1009.2 1008.5 0.0
22/04:30pm 35.8 32.8 7.8 18 15.8 W 13 20 7 11 1009.7 1009.0 0.0
22/04:00pm 35.5 33.4 8.3 19 15.5 NW 9 19 5 10 1010.0 1009.3 0.0
22/03:30pm 35.4 32.9 9.7 21 14.9 NNE 13 22 7 12 1010.3 1009.6 0.0
22/03:00pm 34.5 32.0 8.3 20 14.8 WNW 11 17 6 9 1010.6 1009.9 0.0
22/02:30pm 34.3 31.4 8.1 20 14.7 W 13 19 7 10 1011.0 1010.3 0.0
22/02:00pm 34.3 31.8 8.1 20 14.8 NNW 11 17 6 9 1011.4 1010.7 0.0
22/01:30pm 34.0 32.2 9.3 22 14.1 SSW 9 20 5 11 1011.7 1011.0 0.0
22/01:00pm 33.3 30.7 9.4 23 13.7 N 13 24 7 13 1012.2 1011.5 0.0
22/12:30pm 32.2 28.6 9.7 25 12.9 ENE 19 28 10 15 1012.5 1011.8 0.0
22/12:00pm 31.4 29.5 11.7 29 11.6 ENE 13 20 7 11 1013.0 1012.3 0.0
22/11:30am 30.7 28.5 12.1 32 11.0 NNE 15 20 8 11 1013.2 1012.5 0.0
22/11:00am 29.8 26.6 11.3 32 10.7 N 19 26 10 14 1013.3 1012.6 0.0
22/10:30am 28.5 24.6 10.7 33 10.2 N 22 30 12 16 1013.5 1012.8 0.0
22/10:00am 27.8 23.9 10.9 35 9.6 NNE 22 28 12 15 1013.6 1012.9 0.0
22/09:30am 26.0 23.9 12.5 43 7.8 NNE 15 22 8 12 1013.9 1013.2 0.0
22/09:00am 23.6 22.9 13.2 52 6.1 NE 9 17 5 9 1014.1 1013.4 0.0
22/08:30am 21.6 20.5 14.3 63 4.3 ENE 13 17 7 9 1014.0 1013.3 0.0
22/08:00am 19.2 17.2 14.0 72 3.0 E 17 20 9 11 1013.6 1012.9 0.0
22/07:30am 17.7 16.8 13.6 77 2.3 E 11 15 6 8 1013.4 1012.7 0.0
22/07:00am 15.8 13.9 13.1 84 1.5 ESE 15 19 8 10 1013.2 1012.5 0.0
22/06:30am 14.7 11.7 12.0 84 1.5 ESE 19 24 10 13 1012.9 1012.2 0.0
22/06:00am 15.5 11.0 11.5 77 2.2 ESE 26 30 14 16 1012.6 1011.9 0.0
22/05:30am 16.6 12.4 11.1 70 3.0 ESE 24 28 13 15 1012.6 1011.9 0.0
22/05:00am 16.9 13.5 10.5 66 3.4 SE 19 24 10 13 1012.3 1011.6 0.0
22/04:30am 16.2 13.4 10.1 67 3.2 SE 15 19 8 10 1012.3 1011.6 0.0
22/04:00am 16.9 14.3 10.7 67 3.3 SE 15 20 8 11 1012.4 1011.7 0.0
22/03:30am 14.7 13.3 9.5 71 2.7 E 7 11 4 6 1012.6 1011.9 0.0
22/03:00am 15.9 14.5 8.9 63 3.6 SE 6 11 3 6 1012.5 1011.8 0.0
22/02:30am 19.1 17.0 8.4 50 5.6 SSE 9 17 5 9 1012.5 1011.8 0.0
22/02:00am 20.1 16.1 8.1 46 6.3 S 19 26 10 14 1012.4 1011.7 0.0
22/01:30am 20.8 16.5 7.8 43 6.8 S 20 30 11 16 1012.3 1011.6 0.0
22/01:00am 21.2 16.7 7.1 40 7.3 S 20 28 11 15 1012.4 1011.7 0.0
22/12:30am 21.9 17.4 7.0 38 7.7 S 20 28 11 15 1012.2 1011.5 0.0
22/12:00am 22.9 17.8 6.2 34 8.6 S 22 28 12 15 1012.0 1011.3 0.0
 
Date/Time
EDT
Temp
°C
App
Temp
°C
Dew
Point
°C
Rel
Hum
%
Delta-T
°C
Wind Press
QNH
hPa
Press
MSL
hPa
Rain since
9am
mm
Dir  Spd
km/h
Gust
km/h
Spd
kts
Gust
kts
21/11:30pm 23.6 18.8 5.5 31 9.2 S 20 24 11 13 1011.9 1011.2 0.0
21/11:00pm 23.8 19.5 5.2 30 9.4 S 17 20 9 11 1011.8 1011.1 0.0
21/10:30pm 24.1 20.2 5.5 30 9.5 S 15 20 8 11 1011.8 1011.1 0.0
21/10:00pm 23.9 20.2 6.2 32 9.1 S 15 19 8 10 1011.7 1011.0 0.0
21/09:30pm 23.9 20.6 6.2 32 9.1 S 13 15 7 8 1011.5 1010.8 0.0
21/09:00pm 24.5 21.5 5.8 30 9.6 S 11 13 6 7 1011.3 1010.6 0.0
21/08:30pm 26.1 23.5 6.2 28 10.4 S 9 13 5 7 1011.1 1010.4 0.0
21/08:00pm 28.4 24.9 5.3 23 12.0 SSW 13 17 7 9 1010.9 1010.2 0.0
21/07:30pm 29.5 25.5 4.9 21 12.8 S 15 20 8 11 1010.6 1009.9 0.0
21/07:00pm 30.0 25.8 3.9 19 13.4 S 15 22 8 12 1010.4 1009.7 0.0
21/06:30pm 30.3 26.2 4.1 19 13.5 SSW 15 26 8 14 1010.1 1009.4 0.0
21/06:00pm 30.1 25.4 3.2 18 13.7 SSE 17 22 9 12 1010.1 1009.4 0.0
21/05:30pm 30.1 25.4 3.2 18 13.7 SSW 17 24 9 13 1010.1 1009.4 0.0
21/05:00pm 30.2 25.9 3.3 18 13.7 S 15 26 8 14 1010.4 1009.7 0.0
21/04:30pm 29.8 25.4 2.9 18 13.6 SSW 15 24 8 13 1010.5 1009.8 0.0
21/04:00pm 29.6 25.0 3.6 19 13.3 S 17 30 9 16 1010.8 1010.1 0.0
21/03:30pm 29.2 25.6 6.6 24 12.1 SSE 15 22 8 12 1011.0 1010.3 0.0
21/03:00pm 28.5 25.4 7.1 26 11.5 S 13 22 7 12 1011.3 1010.6 0.0
21/02:30pm 28.0 24.8 8.3 29 10.8 SSW 15 28 8 15 1011.5 1010.8 0.0
21/02:00pm 26.9 23.5 9.3 33 9.7 SSW 17 28 9 15 1011.7 1011.0 0.0
21/01:30pm 25.4 22.3 8.8 35 9.0 SSW 15 30 8 16 1011.9 1011.2 0.0
21/01:00pm 25.3 22.4 9.6 37 8.7 SSW 15 24 8 13 1012.0 1011.3 0.0
21/12:30pm 23.4 20.9 9.8 42 7.5 S 13 24 7 13 1012.3 1011.6 0.0
21/12:00pm 23.1 20.8 10.5 45 7.0 SSW 13 22 7 12 1012.5 1011.8 0.0
21/11:30am 21.9 19.1 10.1 47 6.5 SSE 15 20 8 11 1012.6 1011.9 0.0
21/11:00am 20.5 17.4 10.3 52 5.6 SSW 17 24 9 13 1012.7 1012.0 0.0
21/10:30am 19.0 15.8 10.0 56 4.8 SSE 17 24 9 13 1012.7 1012.0 0.0
21/10:00am 18.5 15.5 10.6 60 4.3 S 17 24 9 13 1012.6 1011.9 0.0
21/09:30am 17.4 13.4 10.3 63 3.8 S 22 30 12 16 1012.4 1011.7 0.0
21/09:00am 16.2 11.7 10.1 67 3.2 S 24 33 13 18 1012.2 1011.5 12.4
21/08:30am 15.1 10.5 9.7 70 2.8 S 24 35 13 19 1011.9 1011.2 12.4
21/08:00am 14.4 9.5 9.8 74 2.4 S 26 37 14 20 1011.5 1010.8 12.4
21/07:30am 13.4 9.5 9.6 78 2.0 SSW 20 30 11 16 1011.1 1010.4 12.4
21/07:00am 13.0 9.4 9.8 81 1.7 SSW 19 24 10 13 1010.9 1010.2 12.4
21/06:30am 12.7 9.8 9.5 81 1.6 SW 15 22 8 12 1010.8 1010.1 12.4
21/06:00am 12.8 10.2 9.3 79 1.8 SW 13 19 7 10 1010.4 1009.7 12.4
21/05:30am 13.2 10.5 9.1 76 2.1 SSW 13 26 7 14 1010.0 1009.3 12.4
21/05:00am 13.5 10.5 9.2 75 2.2 SSW 15 19 8 10 1009.5 1008.8 12.4
21/04:30am 13.7 10.7 9.4 75 2.2 SSW 15 20 8 11 1009.0 1008.3 12.4
21/04:00am 14.1 11.5 9.5 74 2.4 SSW 13 22 7 12 1008.6 1007.9 12.4
21/03:30am 14.6 12.1 9.6 72 2.6 SW 13 17 7 9 1008.6 1007.9 12.4
21/03:00am 15.1 12.6 9.7 70 2.8 SSW 13 20 7 11 1008.4 1007.7 12.4
21/02:30am 15.5 12.0 10.1 70 2.8 SSW 19 30 10 16 1008.1 1007.4 12.4
21/02:00am 15.8 12.6 10.1 69 3.0 S 17 32 9 17 1007.9 1007.3 12.4
21/01:30am 16.4 13.8 10.7 69 3.1 SSW 15 22 8 12 1007.8 1007.2 12.4
21/01:00am 17.1 14.6 10.9 67 3.4 SSW 15 22 8 12 1007.8 1007.2 12.4
21/12:30am 17.0 14.2 11.3 69 3.1 SW 17 24 9 13 1007.4 1006.7 12.4
21/12:00am 18.3 15.3 10.7 61 4.1 SSW 17 24 9 13 1006.9 1006.2 12.4
 
Date/Time
EDT
Temp
°C
App
Temp
°C
Dew
Point
°C
Rel
Hum
%
Delta-T
°C
Wind Press
QNH
hPa
Press
MSL
hPa
Rain since
9am
mm
Dir  Spd
km/h
Gust
km/h
Spd
kts
Gust
kts
20/11:30pm 18.8 15.4 10.6 59 4.4 SSW 19 26 10 14 1006.6 1005.9 12.4
20/11:00pm 19.2 17.1 11.0 59 4.5 S 13 17 7 9 1006.2 1005.5 12.4
20/10:30pm 19.9 17.0 10.9 56 4.9 S 17 24 9 13 1005.7 1005.0 12.4
20/10:00pm 20.6 18.1 11.2 55 5.2 S 15 22 8 12 1005.3 1004.6 12.4
20/09:30pm 21.8 17.6 11.2 51 5.9 S 24 35 13 19 1004.6 1003.9 12.4
20/09:00pm 22.7 19.6 12.3 52 6.0 SSW 20 26 11 14 1003.7 1003.0 12.4
20/08:30pm 23.4 21.1 13.0 52 6.0 SW 17 24 9 13 1003.1 1002.4 12.4
20/08:00pm 24.8 21.0 12.4 46 7.2 SSW 24 32 13 17 1002.3 1001.6 12.4
20/07:30pm 25.9 22.6 12.7 44 7.7 SW 22 32 12 17 1001.6 1000.9 12.4
20/07:01pm 26.4 21.0 12.1 41 8.3 SW 32 50 17 27 1000.9 1000.1 12.4
20/07:00pm 26.4 20.7 11.7 40 8.5 SW 33 50 18 27 1000.9 1000.1 12.4
20/06:30pm 27.3 21.7 13.3 42 8.3 SW 35 50 19 27 1000.0 999.3 12.4
20/06:00pm 27.9 22.7 14.5 44 8.2 SW 35 48 19 26 999.5 998.8 12.4
20/05:40pm 28.3 23.2 15.9 47 7.7 SW 37 56 20 30 999.4 998.7 12.4
20/05:30pm 28.1 23.2 15.4 46 7.8 SW 35 46 19 25 999.3 998.6 12.4
20/05:00pm 28.3 24.4 16.9 50 7.2 SW 33 46 18 25 999.2 998.5 12.4
20/04:30pm 27.5 24.3 18.5 58 5.8 SW 33 50 18 27 999.2 998.5 12.4
20/04:00pm 25.7 22.6 18.9 66 4.4 SW 33 54 18 29 999.2 998.5 12.4
20/03:30pm 24.3 21.7 20.6 80 2.4 SW 35 46 19 25 999.2 998.5 12.4
20/03:02pm 23.2 19.7 20.5 85 1.8 SW 39 52 21 28 999.0 998.3 12.4
20/03:00pm 23.2 19.7 20.5 85 1.8 SW 39 50 21 27 999.0 998.3 12.4
20/02:47pm 23.4 21.0 21.8 91 1.1 SW 37 56 20 30 998.9 998.2 12.4
20/02:30pm 23.2 20.9 22.0 93 0.8 SW 37 54 20 29 998.6 997.9 12.4
20/02:26pm 23.4 22.5 23.2 99 0.1 SW 33 44 18 24 998.5 997.8 12.4
20/02:12pm 23.2 22.3 23.2 100 0.0 SW 33 46 18 25 998.2 997.5 12.4
20/02:00pm 22.5 21.1 22.3 99 0.1 SW 33 46 18 25 998.0 997.3 12.4
20/01:51pm 22.7 19.7 22.2 97 0.3 W 41 59 22 32 997.9 997.2 12.2
20/01:48pm 23.4 20.6 22.4 94 0.7 WNW 41 59 22 32 997.8 997.1 12.0
20/01:41pm 25.5 27.0 25.5 100 0.0 NW 28 50 15 27 996.7 996.0 11.6
20/01:40pm 25.5 27.3 25.5 100 0.0 NW 26 43 14 23 996.7 996.0 11.6
20/01:37pm 25.4 27.2 25.4 100 0.0 WNW 26 35 14 19 996.8 996.1 11.6
20/01:30pm 25.1 25.9 25.1 100 0.0 WNW 30 41 16 22 997.0 996.3 11.6
20/01:27pm 24.9 25.2 24.9 100 0.0 WNW 32 46 17 25 997.2 996.5 11.6
20/01:11pm 24.8 24.9 24.6 99 0.1 WNW 32 50 17 27 997.6 996.9 5.2
20/01:07pm 25.3 25.2 25.1 99 0.1 WNW 35 50 19 27 997.7 997.0 3.4
20/01:01pm 25.7 26.1 25.4 98 0.2 WNW 33 44 18 24 997.5 996.8 2.4
20/01:00pm 25.8 26.4 25.6 99 0.1 WNW 33 48 18 26 997.5 996.8 2.4
20/12:59pm 25.8 26.4 25.6 99 0.1 WNW 33 48 18 26 997.5 996.8 2.4
20/12:47pm 25.8 25.9 25.5 98 0.2 WNW 35 52 19 28 997.8 997.1 2.4
20/12:35pm 26.3 25.0 24.5 90 1.3 WNW 39 59 21 32 997.8 997.1 2.2
20/12:30pm 26.5 24.7 24.3 88 1.5 WNW 41 56 22 30 997.7 997.0 2.2
20/12:25pm 26.7 25.8 24.4 87 1.6 WNW 37 56 20 30 997.7 997.0 2.2
20/12:13pm 26.6 27.8 26.3 98 0.2 NW 32 43 17 23 997.8 997.1 2.2
20/12:00pm 25.6 26.2 25.6 100 0.0 NW 33 43 18 23 997.9 997.2 2.2
20/11:30am 24.6 26.1 24.4 99 0.1 W 24 33 13 18 998.4 997.7 1.4
20/11:00am 24.5 26.3 24.3 99 0.1 NW 22 30 12 16 998.1 997.4 0.8
20/10:58am 24.4 26.2 24.2 99 0.1 NW 22 30 12 16 998.1 997.4 0.8
20/10:30am 24.8 25.2 23.8 94 0.7 NW 28 39 15 21 998.5 997.8 0.4
20/10:00am 24.8 23.8 23.0 90 1.2 WNW 33 48 18 26 998.7 998.0 0.4
20/09:30am 26.7 26.0 22.5 78 2.8 NW 30 37 16 20 998.7 998.0 0.0
20/09:00am 26.1 27.4 22.6 81 2.4 NW 20 30 11 16 998.7 998.0 0.0
20/08:30am 24.9 26.2 21.6 82 2.2 NNW 17 22 9 12 998.3 997.6 0.0
20/08:00am 23.5 25.1 20.0 81 2.3 N 11 15 6 8 998.2 997.5 0.0
20/07:30am 23.2 24.2 19.4 79 2.4 NNW 13 19 7 10 998.3 997.6 0.0
20/07:00am 23.4 21.4 16.4 64 4.3 NW 22 32 12 17 998.6 997.9 0.0
20/06:59am 23.6 21.6 16.4 64 4.4 NW 22 32 12 17 998.6 997.9 0.0
20/06:32am 28.6 23.9 13.3 39 9.1 NW 30 50 16 27 998.4 997.7 0.0
20/06:30am 28.8 24.7 12.7 37 9.5 WNW 26 44 14 24 998.3 997.6 0.0
20/06:00am 29.6 27.1 13.4 37 9.8 NNW 19 30 10 16 996.4 995.7 0.0
20/05:30am 29.3 26.9 11.4 33 10.4 NNW 15 24 8 13 995.9 995.2 0.0
20/05:00am 30.1 26.1 10.6 30 11.3 N 22 28 12 15 995.8 995.1 0.0
20/04:30am 28.5 27.0 9.2 30 10.7 NNE 7 11 4 6 996.1 995.4 0.0
20/04:00am 28.0 26.2 9.3 31 10.5 NE 9 15 5 8 996.7 996.0 0.0
20/03:30am 27.3 24.8 9.6 33 9.9 E 13 15 7 8 997.7 997.0 0.0
20/03:00am 28.7 25.6 8.9 29 11.1 NE 15 22 8 12 997.9 997.2 0.0
20/02:30am 28.0 23.8 8.3 29 10.8 ENE 20 26 11 14 998.1 997.4 0.0
20/02:00am 28.4 24.7 8.1 28 11.2 ENE 17 22 9 12 999.1 998.4 0.0
20/01:30am 25.6 21.9 8.1 33 9.4 E 17 20 9 11 999.2 998.5 0.0
20/01:00am 25.5 22.2 8.1 33 9.4 E 15 19 8 10 999.9 999.2 0.0
20/12:30am 24.8 21.3 7.4 33 9.2 ENE 15 15 8 8 1000.8 1000.0 0.0
20/12:00am 26.5 24.6 7.5 30 10.2 ENE 7 11 4 6 1001.4 1000.7 0.0
 
Date/Time
EDT
Temp
°C
App
Temp
°C
Dew
Point
°C
Rel
Hum
%
Delta-T
°C
Wind Press
QNH
hPa
Press
MSL
hPa
Rain since
9am
mm
Dir  Spd
km/h
Gust
km/h
Spd
kts
Gust
kts
19/11:30pm 26.9 23.9 7.9 30 10.3 ENE 13 15 7 8 1002.1 1001.4 0.0
19/11:00pm 25.5 22.9 7.6 32 9.6 ENE 11 13 6 7 1002.6 1001.9 0.0
19/10:30pm 26.2 24.1 8.2 32 9.7 ENE 9 9 5 5 1002.9 1002.2 0.0
19/10:00pm 26.3 23.3 7.8 31 10.0 ENE 13 13 7 7 1003.0 1002.3 0.0
19/09:30pm 26.8 24.4 8.7 32 9.9 E 11 13 6 7 1003.2 1002.5 0.0

Other Formats:

Comma delimited format used in spreadsheet applications
http://www.bom.gov.au/fwo/IDN60801/IDN60801.95704.axf

JavaScript Object Notation format (JSON) in row-major order
http://www.bom.gov.au/fwo/IDN60801/IDN60801.95704.json